James Reserve, California Weather observations

Data are for 10 minute period ending at time listed.
 Day   Time   Solar   Ave.   Ave.  Ave.  Vector  Max.   Baro.   Total    
  of    of     Rad.   Air    Rel.  Wind   Wind   Wind  Press.  Precip.   
Year   Day            Temp.  Hum.  Speed  Dir.   Gust                    
2016   (PST)  Kw/m2    F      %     mph   deg.    mph    mb.     in.     
-------------------------------------------------------------------------
  40    4:50   0.00   34.7    65    0.4    29     0.7   844.2    0.00 
  40    5:00   0.00   34.7    65    0.4    32     0.7   844.2    0.00 
  40    5:10   0.00   34.8    65    0.5    26     0.8   844.3    0.00 
  40    5:20   0.00   34.7    66    0.5    32     0.9   844.3    0.00 
  40    5:30   0.00   34.6    65    0.4    24     0.9   844.5    0.00 
  40    5:40   0.00   34.4    65    0.5    39     0.8   844.5    0.00 
  40    5:50   0.00   34.5    67    0.4    19     0.8   844.6    0.00 
  40    6:00   0.00   34.6    65    0.6    40     0.9   844.6    0.00 
  40    6:10   0.00   34.8    66    0.4    34     0.7   844.6    0.00 
  40    6:20   0.00   34.6    65    0.3    24     0.7   844.5    0.00 
  40    6:30   0.00   34.3    66    0.4    29     0.7   844.6    0.00 
  40    6:40   0.00   34.2    68    0.3    22     0.5   844.7    0.00 
  40    6:50   0.00   34.2    66    0.4    33     0.7   844.7    0.00 
  40    7:00   0.00   34.2    66    0.3    30     0.6   844.7    0.00 
  40    7:10   0.01   34.4    66    0.4    35     0.7   844.7    0.00 
  40    7:20   0.01   34.6    68    0.4    30     0.6   844.7    0.00 
  40    7:30   0.01   34.7    68    0.4    29     0.6   844.8    0.00 
  40    7:40   0.01   34.9    68    0.4    31     0.6   844.9    0.00 
  40    7:50   0.02   35.3    68    0.5    43     0.7   845.0    0.00 
  40    8:00   0.02   35.8    71    0.7    48     0.9   845.1    0.00 
  40    8:10   0.02   36.7    71    0.8    51     1.0   845.2    0.00 
  40    8:20   0.03   37.4    72    0.8    52     1.0   845.3    0.00 
  40    8:30   0.03   38.4    69    0.9    53     1.0   845.4    0.00 
  40    8:40   0.04   39.2    66    0.8    54     1.0   845.4    0.00 
  40    8:50   0.04   40.2    64    0.9    54     1.0   845.5    0.00 
  40    9:00   0.03   41.0    64    0.8    57     1.0   845.4    0.00 
  40    9:10   0.03   41.8    64    0.7    59     1.1   845.4    0.00 
  40    9:20   0.03   42.7    63    0.8    59     1.2   845.5    0.00 
  40    9:30   0.03   43.8    62    0.8    59     1.0   845.5    0.00 
  40    9:40   0.04   45.4    57    0.8    59     0.9   845.4    0.00 
  40    9:50   0.04   47.0    52    0.7    59     1.0   845.4    0.00 
  40   10:00   0.04   48.6    49    0.7    61     1.0   845.4    0.00 
  40   10:10   0.04   50.1    45    0.5    64     0.8   845.3    0.00 
  40   10:20   0.04   51.8    46    0.4    63     0.8   845.3    0.00 
  40   10:30   0.05   53.2    45    0.3    92     0.7   845.3    0.00 
  40   10:40   0.05   55.1    43    0.3   183     0.6   845.3    0.00 
  40   10:50   0.05   57.1    38    0.2   109     0.6   845.2    0.00 
  40   11:00   0.26   60.1    31    0.5   170     1.2   845.1    0.00 
  40   11:10   0.26   63.6    22    0.7   171     1.7   845.0    0.00 
  40   11:20   0.08   65.0    21    0.9   177     2.6   845.0    0.00 
  40   11:30   0.37   65.6    18    0.7   165     1.7   844.9    0.00 
  40   11:40   0.79   66.1    18    0.9   190     2.2   844.8    0.00 
  40   11:50   0.85   66.4    18    1.0   194     3.0   844.6    0.00 
  40   12:00   0.84   67.1    16    0.6   214     1.7   844.5    0.00 
  40   12:10   0.83   67.7    17    1.1   176     3.1   844.3    0.00 
  40   12:20   0.83   67.6    17    0.6   139     1.6   844.1    0.00 
  40   12:30   0.84   67.5    17    0.7   180     1.4   843.9    0.00 
  40   12:40   0.83   68.4    18    0.7   246     1.6   843.8    0.00 
  40   12:50   0.82   68.4    17    0.7   230     1.7   843.7    0.00 
  40   13:00   0.82   67.6    16    0.9   171     2.2   843.5    0.00 
  40   13:10   0.81   67.9    16    1.2   168     2.6   843.4    0.00 
  40   13:20   0.79   68.3    16    0.8   150     1.8   843.4    0.00 
  40   13:30   0.78   68.3    16    0.7   150     2.1   843.4    0.00 
  40   13:40   0.76   68.1    15    0.8   159     2.2   843.3    0.00 
  40   13:50   0.73   67.8    15    0.9   152     2.2   843.2    0.00 
  40   14:00   0.42   67.5    15    0.7   112     2.1   843.2    0.00 
  40   14:10   0.05   67.0    17    0.9   192     2.1   843.1    0.00 
  40   14:20   0.37   66.9    18    1.0   172     2.4   843.1    0.00 
  40   14:30   0.63   66.6    16    0.8   227     2.1   843.1    0.00 
  40   14:40   0.60   66.5    17    0.8   202     2.1   843.1    0.00 
  40   14:50   0.21   66.1    19    0.6   155     1.9   843.2    0.00 
  40   15:00   0.03   65.5    19    0.6   167     1.6   843.2    0.00 
  40   15:10   0.04   65.2    19    0.9   178     2.9   843.3    0.00 
  40   15:20   0.04   64.4    22    0.4   186     1.4   843.2    0.00 
  40   15:30   0.04   62.9    26    0.5   102     1.3   843.3    0.00 
  40   15:40   0.23   61.5    28    0.6   144     2.6   843.3    0.00 
  40   15:50   0.05   59.9    33    0.5    93     1.3   843.4    0.00 
  40   16:00   0.02   58.1    36    0.5    88     1.1   843.4    0.00 
  40   16:10   0.04   56.9    37    0.4    72     1.2   843.4    0.00 
  40   16:20   0.05   55.1    40    0.5    63     0.8   843.4    0.00 
  40   16:30   0.02   54.0    42    0.5    56     0.9   843.5    0.00 
  40   16:40   0.02   53.1    43    0.4    58     0.7   843.6    0.00 
  40   16:50   0.01   52.1    44    0.6    54     0.8   843.7    0.00 
  40   17:00   0.01   51.4    45    0.5    59     0.8   843.7    0.00 
  40   17:10   0.00   50.3    46    0.5    56     0.7   843.8    0.00 
  40   17:20   0.00   49.5    47    0.5    55     0.7   843.9    0.00 
  40   17:30   0.00   48.9    48    0.5    51     0.7   844.0    0.00 
  40   17:40   0.00   48.2    51    0.4    48     0.6   844.1    0.00 
  40   17:50   0.00   47.3    55    0.3    46     0.6   844.1    0.00 
  40   18:00   0.00   46.5    57    0.3    40     0.5   844.2    0.00 
  40   18:10   0.00   45.7    58    0.3    38     0.5   844.2    0.00 
  40   18:20   0.00   45.2    57    0.3    34     0.5   844.3    0.00 
  40   18:30   0.00   44.5    57    0.2    31     0.4   844.4    0.00 
  40   18:40   0.00   43.9    58    0.3    34     0.5   844.4    0.00 
  40   18:50   0.00   43.6    60    0.3    34     0.5   844.6    0.00 
  40   19:00   0.00   43.2    60    0.3    29     0.4   844.5    0.00 
  40   19:10   0.00   42.7    60    0.3    29     0.4   844.5    0.00 
  40   19:20   0.00   42.3    61    0.3    36     0.5   844.5    0.00 
  40   19:30   0.00   42.1    61    0.3    39     0.5   844.3    0.00 
  40   19:40   0.00   42.1    62    0.3    30     0.7   844.2    0.00 
  40   19:50   0.00   41.8    63    0.4    34     0.7   844.2    0.00 
  40   20:00   0.00   41.6    63    0.4    38     0.8   844.2    0.00 
  40   20:10   0.00   41.5    64    0.3    24     0.6   844.1    0.00 
  40   20:20   0.00   41.3    62    0.4    41     0.7   844.0    0.00 
  40   20:30   0.00   41.1    62    0.4    31     0.6   843.9    0.00 
  40   20:40   0.00   40.6    62    0.4    26     0.6   843.9    0.00 
  40   20:50   0.00   40.2    61    0.3    33     0.6   844.0    0.00 
  40   21:00   0.00   39.9    61    0.4    31     0.5   844.0    0.00 
  40   21:10   0.00   39.5    62    0.3    27     0.5   844.0    0.00 
  40   21:20   0.00   39.5    62    0.4    38     0.6   844.1    0.00 
  40   21:30   0.00   39.6    61    0.4    26     0.7   844.1    0.00 
  40   21:40   0.00   39.5    61    0.4    28     0.6   844.2    0.00 
  40   21:50   0.00   39.3    62    0.4    37     0.6   844.3    0.00 
  40   22:00   0.00   39.2    62    0.3    18     0.6   844.4    0.00 
  40   22:10   0.00   39.3    61    0.4    30     0.6   844.5    0.00 
  40   22:20   0.00   38.9    63    0.3    32     0.5   844.6    0.00 
  40   22:30   0.00   38.9    63    0.3    27     0.6   844.6    0.00 
  40   22:40   0.00   38.7    63    0.3    26     0.6   844.7    0.00 
  40   22:50   0.00   38.8    62    0.3    18     0.5   844.7    0.00 
  40   23:00   0.00   38.5    62    0.3    30     0.5   844.6    0.00 
  40   23:10   0.00   38.5    62    0.3    26     0.5   844.6    0.00 
  40   23:20   0.00   38.6    61    0.4    36     1.3   844.7    0.00 
  40   23:30   0.00   38.9    61    0.4    36     0.5   844.7    0.00 
  40   23:40   0.00   38.9    63    0.4    34     0.6   844.7    0.00 
  40   23:50   0.00   38.8    62    0.3    32     0.5   844.6    0.00 
  41    0:00   0.00   38.7    62    0.4    34     0.5   844.6    0.00 
  41    0:10   0.00   38.6    61    0.4    34     0.7   844.5    0.00 
  41    0:20   0.00   38.3    62    0.5    38     0.7   844.2    0.00 
  41    0:30   0.00   38.2    60    0.4    32     0.6   844.0    0.00 
  41    0:40   0.00   38.2    59    0.4    33     0.7   844.1    0.00 
  41    0:50   0.00   38.1    60    0.4    33     1.1   844.3    0.00 
  41    1:00   0.00   38.2    60    0.4    29     0.8   844.4    0.00 
  41    1:10   0.00   38.1    61    0.4    36     0.9   844.5    0.00 
  41    1:20   0.00   37.8    62    0.4    39     0.6   844.5    0.00 
  41    1:30   0.00   37.6    61    0.4    29     0.7   844.5    0.00 
  41    1:40   0.00   37.6    60    0.4    37     0.7   844.5    0.00 
  41    1:50   0.00   37.6    60    0.5    35     0.7   844.4    0.00 
  41    2:00   0.00   37.4    61    0.3    22     0.5   844.4    0.00 
  41    2:10   0.00   37.4    59    0.3    29     0.5   844.4    0.00 
  41    2:20   0.00   37.2    60    0.4    35     0.7   844.4    0.00 
  41    2:30   0.00   37.2    61    0.4    27     0.7   844.3    0.00 
  41    2:40   0.00   36.9    62    0.3    20     0.5   844.2    0.00 
  41    2:50   0.00   36.9    59    0.3    27     0.6   844.1    0.00 
  41    3:00   0.00   36.8    59    0.4    32     0.6   844.1    0.00 
  41    3:10   0.00   36.8    60    0.4    26     0.6   844.1    0.00 
  41    3:20   0.00   36.8    60    0.4    28     0.6   844.1    0.00 
  41    3:30   0.00   36.6    61    0.3    22     0.5   844.2    0.00 
  41    3:40   0.00   36.7    59    0.4    29     0.6   844.3    0.00 
  41    3:50   0.00   36.6    61    0.3    24     0.6   844.3    0.00 
  41    4:00   0.00   36.5    60    0.4    33     0.7   844.2    0.00 
  41    4:10   0.00   36.4    61    0.3    22     0.5   844.2    0.00 
  41    4:20   0.00   36.3    59    0.4    30     0.6   844.3    0.00 
  41    4:30   0.00   36.2    60    0.4    32     0.6   844.3    0.00 
  41    4:40   0.00   36.1    61    0.3    22     0.5   844.3    0.00 

Return to James Reserve graphs page.


Western Regional Climate Center,wrcc@dri.edu